createdAt,value
2023-05-19T00:00:32.309Z,539.0000
2023-05-19T00:01:34.281Z,539.0000
2023-05-19T00:02:36.564Z,537.0000
2023-05-19T00:03:38.862Z,537.0000
2023-05-19T00:04:41.048Z,537.0000
2023-05-19T00:05:43.420Z,537.0000
2023-05-19T00:06:43.406Z,537.0000
2023-05-19T00:07:45.633Z,537.0000
2023-05-19T00:08:47.877Z,539.0000
2023-05-19T00:09:50.112Z,542.0000
2023-05-19T00:10:52.447Z,542.0000
2023-05-19T00:11:54.581Z,541.0000
2023-05-19T00:12:56.875Z,539.0000
2023-05-19T00:13:59.101Z,539.0000
2023-05-19T00:15:01.374Z,540.0000
2023-05-19T00:16:03.767Z,540.0000
2023-05-19T00:17:03.755Z,540.0000
2023-05-19T00:18:05.978Z,539.0000
2023-05-19T00:19:08.241Z,539.0000
2023-05-19T00:20:10.457Z,539.0000
2023-05-19T00:21:12.779Z,538.0000
2023-05-19T00:22:15.044Z,538.0000
2023-05-19T00:23:17.332Z,538.0000
2023-05-19T00:24:19.622Z,538.0000
2023-05-19T00:25:19.762Z,540.0000
2023-05-19T00:26:22.064Z,540.0000
2023-05-19T00:27:24.305Z,540.0000
2023-05-19T00:28:26.606Z,538.0000
2023-05-19T00:29:28.828Z,538.0000
2023-05-19T00:30:31.295Z,538.0000
2023-05-19T00:31:33.436Z,539.0000
2023-05-19T00:32:35.690Z,538.0000
2023-05-19T00:33:35.769Z,538.0000
2023-05-19T00:34:38.062Z,537.0000
2023-05-19T00:35:40.303Z,539.0000
2023-05-19T00:36:42.727Z,540.0000
2023-05-19T00:37:44.818Z,541.0000
2023-05-19T00:38:47.099Z,542.0000
2023-05-19T00:39:49.363Z,538.0000
2023-05-19T00:40:51.651Z,537.0000
2023-05-19T00:41:51.802Z,536.0000
2023-05-19T00:42:54.071Z,535.0000
2023-05-19T00:43:56.432Z,535.0000
2023-05-19T00:44:58.611Z,536.0000
2023-05-19T00:46:00.875Z,538.0000
2023-05-19T00:47:03.218Z,540.0000
2023-05-19T00:48:05.336Z,541.0000
2023-05-19T00:49:07.549Z,539.0000
2023-05-19T00:50:09.800Z,538.0000
2023-05-19T00:51:09.940Z,538.0000
2023-05-19T00:52:12.240Z,538.0000
2023-05-19T00:53:14.495Z,536.0000
2023-05-19T00:54:16.776Z,538.0000
2023-05-19T00:55:19.018Z,542.0000
2023-05-19T00:56:21.265Z,541.0000
2023-05-19T00:57:23.598Z,540.0000
2023-05-19T00:58:25.752Z,540.0000
2023-05-19T00:59:25.931Z,541.0000
2023-05-19T01:00:28.255Z,541.0000
2023-05-19T01:01:30.502Z,542.0000
2023-05-19T01:02:32.845Z,540.0000
2023-05-19T01:03:35.371Z,540.0000
2023-05-19T01:04:37.322Z,539.0000
2023-05-19T01:05:39.617Z,540.0000
2023-05-19T01:06:41.940Z,541.0000
2023-05-19T01:07:42.127Z,542.0000
2023-05-19T01:08:44.358Z,540.0000
2023-05-19T01:09:46.648Z,538.0000
2023-05-19T01:10:48.847Z,539.0000
2023-05-19T01:11:51.141Z,539.0000
2023-05-19T01:12:53.431Z,539.0000
2023-05-19T01:13:55.619Z,537.0000
2023-05-19T01:14:55.710Z,535.0000
2023-05-19T01:17:02.476Z,536.0000
2023-05-19T01:18:04.576Z,532.0000
2023-05-19T01:19:06.721Z,531.0000
2023-05-19T01:20:08.865Z,530.0000
2023-05-19T01:21:11.050Z,530.0000
2023-05-19T01:22:13.435Z,530.0000
2023-05-19T01:23:15.467Z,532.0000
2023-05-19T01:24:17.681Z,533.0000
2023-05-19T01:25:19.932Z,532.0000
2023-05-19T01:26:22.172Z,535.0000
2023-05-19T01:27:22.240Z,535.0000
2023-05-19T01:28:24.482Z,532.0000
2023-05-19T01:29:26.679Z,530.0000
2023-05-19T01:30:28.935Z,529.0000
2023-05-19T01:31:31.144Z,527.0000
2023-05-19T01:32:33.397Z,529.0000
2023-05-19T01:33:35.612Z,532.0000
2023-05-19T01:34:37.795Z,532.0000
2023-05-19T01:35:40.017Z,530.0000
2023-05-19T01:36:42.249Z,531.0000
2023-05-19T01:37:44.416Z,530.0000
2023-05-19T01:38:46.666Z,529.0000
2023-05-19T01:39:48.848Z,527.0000
2023-05-19T01:40:51.071Z,529.0000
2023-05-19T01:41:51.147Z,528.0000
2023-05-19T01:42:54.280Z,525.0000
2023-05-19T01:43:55.522Z,524.0000
2023-05-19T01:44:57.662Z,525.0000
2023-05-19T01:45:59.910Z,528.0000
2023-05-19T01:47:01.983Z,529.0000
2023-05-19T01:48:04.240Z,532.0000
2023-05-19T01:49:06.390Z,532.0000
2023-05-19T01:50:08.551Z,530.0000
2023-05-19T01:51:10.750Z,529.0000
2023-05-19T01:52:12.952Z,530.0000
2023-05-19T01:53:15.136Z,532.0000
2023-05-19T01:54:17.404Z,531.0000
2023-05-19T01:55:19.590Z,531.0000
2023-05-19T01:56:21.801Z,533.0000
2023-05-19T01:57:24.018Z,532.0000
2023-05-19T01:58:26.228Z,531.0000
2023-05-19T01:59:28.469Z,527.0000
2023-05-19T02:00:30.881Z,526.0000
2023-05-19T02:01:32.910Z,525.0000
2023-05-19T02:02:32.932Z,526.0000
2023-05-19T02:03:35.129Z,527.0000
2023-05-19T02:04:37.362Z,528.0000
2023-05-19T02:05:39.528Z,529.0000
2023-05-19T02:06:41.755Z,525.0000
2023-05-19T02:07:44.027Z,525.0000
2023-05-19T02:08:46.188Z,525.0000
2023-05-19T02:09:48.460Z,524.0000
2023-05-19T02:10:50.635Z,521.0000
2023-05-19T02:11:52.854Z,519.0000
2023-05-19T02:12:55.074Z,519.0000
2023-05-19T02:13:57.304Z,524.0000
2023-05-19T02:14:59.572Z,529.0000
2023-05-19T02:15:59.657Z,535.0000
2023-05-19T02:17:01.883Z,542.0000
2023-05-19T02:18:04.142Z,546.0000
2023-05-19T02:19:06.375Z,549.0000
2023-05-19T02:20:09.092Z,553.0000
2023-05-19T02:21:10.782Z,561.0000
2023-05-19T02:22:13.012Z,563.0000
2023-05-19T02:23:15.236Z,567.0000
2023-05-19T02:24:17.460Z,563.0000
2023-05-19T02:25:19.709Z,561.0000
2023-05-19T02:26:21.917Z,558.0000
2023-05-19T02:27:21.999Z,553.0000
2023-05-19T02:28:24.246Z,553.0000
2023-05-19T02:29:26.483Z,551.0000
2023-05-19T02:30:28.721Z,548.0000
2023-05-19T02:31:30.924Z,545.0000
2023-05-19T02:32:33.353Z,546.0000
2023-05-19T02:33:35.354Z,548.0000
2023-05-19T02:34:37.619Z,548.0000
2023-05-19T02:35:39.877Z,548.0000
2023-05-19T02:36:42.119Z,546.0000
2023-05-19T02:37:44.385Z,542.0000
2023-05-19T02:38:44.504Z,540.0000
2023-05-19T02:40:23.360Z,539.0000
2023-05-19T02:41:24.458Z,539.0000
2023-05-19T02:42:25.606Z,541.0000
2023-05-19T02:43:27.773Z,543.0000
2023-05-19T02:44:30.023Z,543.0000
2023-05-19T02:45:32.237Z,543.0000
2023-05-19T02:46:34.577Z,544.0000
2023-05-19T02:47:37.286Z,545.0000
2023-05-19T02:48:36.789Z,545.0000
2023-05-19T02:49:38.975Z,542.0000
2023-05-19T02:50:41.202Z,541.0000
2023-05-19T02:51:43.435Z,542.0000
2023-05-19T02:52:45.668Z,543.0000
2023-05-19T02:53:47.882Z,543.0000
2023-05-19T02:54:50.130Z,546.0000
2023-05-19T02:55:52.390Z,544.0000
2023-05-19T02:56:54.701Z,544.0000
2023-05-19T02:57:56.888Z,545.0000
2023-05-19T02:58:59.094Z,546.0000
2023-05-19T02:59:59.163Z,544.0000
2023-05-19T03:01:01.358Z,545.0000
2023-05-19T03:02:03.692Z,543.0000
2023-05-19T03:03:05.919Z,543.0000
2023-05-19T03:04:08.056Z,544.0000
2023-05-19T03:05:10.201Z,545.0000
2023-05-19T03:06:12.412Z,548.0000
2023-05-19T03:07:14.636Z,547.0000
2023-05-19T03:08:16.838Z,546.0000
2023-05-19T03:09:19.047Z,545.0000
2023-05-19T03:10:21.264Z,544.0000
2023-05-19T03:11:23.504Z,543.0000
2023-05-19T03:12:25.735Z,543.0000
2023-05-19T03:13:27.923Z,545.0000
2023-05-19T03:14:27.985Z,547.0000
2023-05-19T03:15:30.211Z,546.0000
2023-05-19T03:16:32.469Z,546.0000
2023-05-19T03:17:34.749Z,547.0000
2023-05-19T03:18:36.840Z,548.0000
2023-05-19T03:19:38.963Z,549.0000
2023-05-19T03:20:41.803Z,547.0000
2023-05-19T03:21:43.308Z,548.0000
2023-05-19T03:22:45.550Z,549.0000
2023-05-19T03:23:47.744Z,545.0000
2023-05-19T03:24:49.974Z,546.0000
2023-05-19T03:25:52.226Z,546.0000
2023-05-19T03:26:54.424Z,546.0000
2023-05-19T03:27:56.671Z,543.0000
2023-05-19T03:28:58.837Z,543.0000
2023-05-19T03:30:01.063Z,545.0000
2023-05-19T03:31:03.248Z,546.0000
2023-05-19T03:32:03.376Z,545.0000
2023-05-19T03:33:05.741Z,541.0000
2023-05-19T03:34:07.850Z,544.0000
2023-05-19T03:35:09.996Z,546.0000
2023-05-19T03:36:12.184Z,546.0000
2023-05-19T03:37:14.375Z,547.0000
2023-05-19T03:38:16.617Z,546.0000
2023-05-19T03:39:18.743Z,552.0000
2023-05-19T03:40:20.936Z,551.0000
2023-05-19T03:41:23.121Z,554.0000
2023-05-19T03:42:25.344Z,552.0000
2023-05-19T03:43:27.550Z,556.0000
2023-05-19T03:44:29.714Z,556.0000
2023-05-19T03:45:31.981Z,557.0000
2023-05-19T03:46:34.045Z,556.0000
2023-05-19T03:47:36.219Z,556.0000
2023-05-19T03:48:36.302Z,554.0000
2023-05-19T03:49:38.709Z,553.0000
2023-05-19T03:50:40.751Z,551.0000
2023-05-19T03:51:42.951Z,550.0000
2023-05-19T03:52:45.165Z,548.0000
2023-05-19T03:53:47.386Z,550.0000
2023-05-19T03:54:49.584Z,551.0000
2023-05-19T03:55:51.833Z,552.0000
2023-05-19T03:56:54.022Z,550.0000
2023-05-19T03:57:56.284Z,550.0000
2023-05-19T03:58:58.455Z,551.0000
2023-05-19T04:00:00.637Z,553.0000
2023-05-19T04:01:02.840Z,554.0000
2023-05-19T04:02:05.126Z,555.0000
2023-05-19T04:03:05.184Z,556.0000
2023-05-19T04:04:07.334Z,556.0000
2023-05-19T04:05:09.446Z,554.0000
2023-05-19T04:06:11.627Z,553.0000
2023-05-19T04:07:13.816Z,554.0000
2023-05-19T04:08:16.018Z,553.0000
2023-05-19T04:09:18.351Z,552.0000
2023-05-19T04:10:20.448Z,552.0000
2023-05-19T04:11:22.646Z,550.0000
2023-05-19T04:12:24.857Z,550.0000
2023-05-19T04:13:27.077Z,549.0000
2023-05-19T04:14:29.306Z,548.0000
2023-05-19T04:15:31.508Z,549.0000
2023-05-19T04:16:33.694Z,547.0000
2023-05-19T04:17:35.958Z,548.0000
2023-05-19T04:18:38.153Z,549.0000
2023-05-19T04:19:40.368Z,548.0000
2023-05-19T04:20:40.425Z,547.0000
2023-05-19T04:21:42.624Z,546.0000
2023-05-19T04:22:44.816Z,545.0000
2023-05-19T04:23:46.933Z,544.0000
2023-05-19T04:24:49.139Z,541.0000
2023-05-19T04:25:51.324Z,541.0000
2023-05-19T04:26:53.506Z,540.0000
2023-05-19T04:27:55.679Z,540.0000
2023-05-19T04:28:57.780Z,542.0000
2023-05-19T04:29:59.958Z,543.0000
2023-05-19T04:31:02.198Z,539.0000
2023-05-19T04:32:04.362Z,538.0000
2023-05-19T04:33:06.606Z,538.0000
2023-05-19T04:34:08.749Z,538.0000
2023-05-19T04:35:10.878Z,539.0000
2023-05-19T04:36:13.029Z,543.0000
2023-05-19T04:37:15.204Z,540.0000
2023-05-19T04:38:17.398Z,541.0000
2023-05-19T04:39:19.561Z,544.0000
2023-05-19T04:40:21.798Z,544.0000
2023-05-19T04:41:23.972Z,543.0000
2023-05-19T04:42:26.230Z,543.0000
2023-05-19T04:43:28.339Z,542.0000
2023-05-19T04:44:30.541Z,541.0000
2023-05-19T04:45:30.626Z,541.0000
2023-05-19T04:46:32.906Z,543.0000
2023-05-19T04:47:35.114Z,548.0000
2023-05-19T04:48:37.275Z,551.0000
2023-05-19T04:49:39.586Z,554.0000
2023-05-19T04:50:41.734Z,551.0000
2023-05-19T04:51:43.924Z,547.0000
2023-05-19T04:52:46.125Z,549.0000
2023-05-19T04:53:48.339Z,550.0000
2023-05-19T04:54:50.573Z,551.0000
2023-05-19T04:55:52.840Z,549.0000
2023-05-19T04:56:54.989Z,546.0000
2023-05-19T04:57:57.197Z,547.0000
2023-05-19T04:58:57.310Z,546.0000
2023-05-19T04:59:59.536Z,546.0000
2023-05-19T05:01:01.821Z,547.0000
2023-05-19T05:02:04.061Z,543.0000
2023-05-19T05:03:06.320Z,542.0000
2023-05-19T05:04:08.583Z,543.0000
2023-05-19T05:05:10.713Z,543.0000
2023-05-19T05:06:12.912Z,544.0000
2023-05-19T05:07:15.153Z,545.0000
2023-05-19T05:08:17.331Z,545.0000
2023-05-19T05:09:19.550Z,543.0000
2023-05-19T05:10:21.758Z,543.0000
2023-05-19T05:11:24.012Z,544.0000
2023-05-19T05:12:24.038Z,544.0000
2023-05-19T05:13:26.269Z,546.0000
2023-05-19T05:14:28.481Z,547.0000
2023-05-19T05:15:30.738Z,548.0000
2023-05-19T05:16:32.948Z,551.0000
2023-05-19T05:17:35.181Z,550.0000
2023-05-19T05:18:37.319Z,550.0000
2023-05-19T05:19:39.524Z,548.0000
2023-05-19T05:20:41.746Z,547.0000
2023-05-19T05:21:43.973Z,547.0000
2023-05-19T05:22:46.170Z,546.0000
2023-05-19T05:23:48.353Z,545.0000
2023-05-19T05:24:50.491Z,546.0000
2023-05-19T05:25:52.699Z,548.0000
2023-05-19T05:26:54.961Z,550.0000
2023-05-19T05:29:16.629Z,536.0000
2023-05-19T05:30:18.743Z,533.0000
2023-05-19T05:31:20.918Z,531.0000
2023-05-19T05:32:23.197Z,531.0000
2023-05-19T05:33:25.472Z,531.0000
2023-05-19T05:34:27.525Z,534.0000
2023-05-19T05:35:29.851Z,533.0000
2023-05-19T05:36:31.993Z,533.0000
2023-05-19T05:37:34.245Z,534.0000
2023-05-19T05:38:34.330Z,534.0000
2023-05-19T05:39:36.552Z,534.0000
2023-05-19T05:40:38.792Z,534.0000
2023-05-19T05:41:41.031Z,536.0000
2023-05-19T05:42:43.305Z,535.0000
2023-05-19T05:43:45.520Z,535.0000
2023-05-19T05:44:47.795Z,534.0000
2023-05-19T05:45:50.069Z,535.0000
2023-05-19T05:46:52.315Z,537.0000
2023-05-19T05:47:54.635Z,536.0000
2023-05-19T05:48:56.827Z,535.0000
2023-05-19T05:49:59.081Z,534.0000
2023-05-19T05:50:59.214Z,534.0000
2023-05-19T05:52:06.401Z,534.0000
2023-05-19T05:53:03.657Z,535.0000
2023-05-19T05:54:05.879Z,536.0000
2023-05-19T05:55:08.128Z,543.0000
2023-05-19T05:56:10.355Z,545.0000
2023-05-19T05:57:12.600Z,546.0000
2023-05-19T05:58:14.864Z,546.0000
2023-05-19T05:59:17.091Z,549.0000
2023-05-19T06:00:19.283Z,549.0000
2023-05-19T06:01:21.470Z,552.0000
2023-05-19T06:02:23.792Z,556.0000
2023-05-19T06:03:23.858Z,557.0000
2023-05-19T06:04:26.048Z,559.0000
2023-05-19T06:05:28.302Z,557.0000
2023-05-19T06:06:30.425Z,559.0000
2023-05-19T06:07:32.545Z,557.0000
2023-05-19T06:08:34.747Z,561.0000
2023-05-19T06:09:36.948Z,559.0000
2023-05-19T06:10:39.159Z,560.0000
2023-05-19T06:11:41.321Z,560.0000
2023-05-19T06:12:43.533Z,559.0000
2023-05-19T06:13:45.763Z,559.0000
2023-05-19T06:14:47.897Z,557.0000
2023-05-19T06:15:50.118Z,556.0000
2023-05-19T06:16:52.276Z,555.0000
2023-05-19T06:17:54.540Z,553.0000
2023-05-19T06:18:56.646Z,551.0000
2023-05-19T06:19:58.714Z,553.0000
2023-05-19T06:20:58.720Z,555.0000
2023-05-19T06:22:00.801Z,556.0000
2023-05-19T06:23:02.946Z,556.0000
2023-05-19T06:24:05.168Z,556.0000
2023-05-19T06:25:07.339Z,555.0000
2023-05-19T06:26:09.466Z,557.0000
2023-05-19T06:27:11.633Z,560.0000
2023-05-19T06:28:13.793Z,559.0000
2023-05-19T06:29:16.023Z,557.0000
2023-05-19T06:30:18.149Z,556.0000
2023-05-19T06:31:20.343Z,554.0000
2023-05-19T06:32:22.505Z,554.0000
2023-05-19T06:33:26.691Z,552.0000
2023-05-19T06:34:26.793Z,552.0000
2023-05-19T06:35:28.946Z,557.0000
2023-05-19T06:36:31.144Z,555.0000
2023-05-19T06:37:33.279Z,556.0000
2023-05-19T06:38:35.505Z,560.0000
2023-05-19T06:39:37.809Z,564.0000
2023-05-19T06:40:39.941Z,567.0000
2023-05-19T06:41:42.041Z,567.0000
2023-05-19T06:42:44.177Z,570.0000
2023-05-19T06:43:46.363Z,573.0000
2023-05-19T06:44:48.566Z,578.0000
2023-05-19T06:45:48.544Z,580.0000
2023-05-19T06:46:50.743Z,580.0000
2023-05-19T06:47:52.945Z,578.0000
2023-05-19T06:48:55.040Z,576.0000
2023-05-19T06:49:57.195Z,578.0000
2023-05-19T06:50:59.282Z,578.0000
2023-05-19T06:52:01.471Z,580.0000
2023-05-19T06:53:03.655Z,579.0000
2023-05-19T06:54:05.763Z,582.0000
2023-05-19T06:55:07.942Z,579.0000
2023-05-19T06:56:10.090Z,579.0000
2023-05-19T06:57:12.231Z,577.0000
2023-05-19T06:58:14.377Z,574.0000
2023-05-19T06:59:16.491Z,578.0000
2023-05-19T07:00:32.032Z,576.0000
2023-05-19T07:01:20.838Z,574.0000
2023-05-19T07:02:23.012Z,575.0000
2023-05-19T07:03:25.310Z,575.0000
2023-05-19T07:04:27.468Z,575.0000
2023-05-19T07:05:29.651Z,573.0000
2023-05-19T07:06:31.841Z,574.0000
2023-05-19T07:07:34.028Z,572.0000
2023-05-19T07:08:34.120Z,574.0000
2023-05-19T07:09:36.365Z,574.0000
2023-05-19T07:10:38.621Z,574.0000
2023-05-19T07:11:40.864Z,575.0000
2023-05-19T07:12:43.039Z,576.0000
2023-05-19T07:13:45.270Z,577.0000
2023-05-19T07:14:47.467Z,575.0000
2023-05-19T07:15:49.896Z,573.0000
2023-05-19T07:16:52.060Z,572.0000
2023-05-19T07:17:54.202Z,568.0000
2023-05-19T07:18:56.405Z,568.0000
2023-05-19T07:19:58.574Z,569.0000
2023-05-19T07:20:58.721Z,569.0000
2023-05-19T07:23:17.371Z,561.0000
2023-05-19T07:24:18.273Z,561.0000
2023-05-19T07:25:19.313Z,559.0000
2023-05-19T07:26:20.522Z,561.0000
2023-05-19T07:27:22.732Z,558.0000
2023-05-19T07:28:24.858Z,557.0000
2023-05-19T07:29:27.007Z,558.0000
2023-05-19T07:30:29.165Z,560.0000
2023-05-19T07:31:31.524Z,558.0000
2023-05-19T07:32:33.737Z,559.0000
2023-05-19T07:33:35.783Z,559.0000
2023-05-19T07:34:37.994Z,561.0000
2023-05-19T07:35:40.203Z,559.0000
2023-05-19T07:36:42.541Z,559.0000
2023-05-19T07:37:44.639Z,559.0000
2023-05-19T07:38:46.874Z,557.0000
2023-05-19T07:39:49.075Z,556.0000
2023-05-19T07:40:49.139Z,555.0000
2023-05-19T07:41:51.507Z,556.0000
2023-05-19T07:42:53.603Z,556.0000
2023-05-19T07:43:55.830Z,555.0000
2023-05-19T07:44:58.028Z,553.0000
2023-05-19T07:46:00.286Z,553.0000
2023-05-19T07:47:02.565Z,554.0000
2023-05-19T07:48:04.803Z,554.0000
2023-05-19T07:49:06.965Z,554.0000
2023-05-19T07:50:09.205Z,553.0000
2023-05-19T07:51:11.439Z,553.0000
2023-05-19T07:52:13.665Z,555.0000
2023-05-19T07:53:15.794Z,555.0000
2023-05-19T07:54:15.814Z,556.0000
2023-05-19T07:55:18.017Z,554.0000
2023-05-19T07:56:20.212Z,554.0000
2023-05-19T07:57:22.560Z,556.0000
2023-05-19T07:58:24.579Z,555.0000
2023-05-19T07:59:26.714Z,553.0000
2023-05-19T08:00:28.917Z,552.0000
2023-05-19T08:01:31.126Z,550.0000
2023-05-19T08:02:33.445Z,548.0000
2023-05-19T08:03:35.693Z,549.0000
2023-05-19T08:04:37.771Z,550.0000
2023-05-19T08:05:39.969Z,549.0000
2023-05-19T08:06:42.197Z,551.0000
2023-05-19T08:07:44.548Z,550.0000
2023-05-19T08:08:46.687Z,549.0000
2023-05-19T08:09:46.772Z,550.0000
2023-05-19T08:10:49.036Z,550.0000
2023-05-19T08:11:51.282Z,548.0000
2023-05-19T08:12:53.591Z,549.0000
2023-05-19T08:13:55.831Z,549.0000
2023-05-19T08:15:00.363Z,546.0000
2023-05-19T08:16:00.380Z,544.0000
2023-05-19T08:17:02.557Z,543.0000
2023-05-19T08:18:04.840Z,541.0000
2023-05-19T08:19:04.933Z,540.0000
2023-05-19T08:20:07.166Z,540.0000
2023-05-19T08:21:09.418Z,537.0000
2023-05-19T08:22:11.626Z,538.0000
2023-05-19T08:23:13.898Z,539.0000
2023-05-19T08:24:16.119Z,539.0000
2023-05-19T08:25:18.374Z,538.0000
2023-05-19T08:26:20.629Z,535.0000
2023-05-19T08:27:22.879Z,532.0000
2023-05-19T08:28:25.188Z,531.0000
2023-05-19T08:29:27.417Z,524.0000
2023-05-19T08:30:29.640Z,514.0000
2023-05-19T08:31:31.935Z,499.0000
2023-05-19T08:32:34.090Z,490.0000
2023-05-19T08:33:36.387Z,485.0000
2023-05-19T08:34:38.499Z,474.0000
2023-05-19T08:35:40.737Z,470.0000
2023-05-19T08:36:42.964Z,467.0000
2023-05-19T08:37:45.198Z,464.0000
2023-05-19T08:38:47.380Z,459.0000
2023-05-19T08:39:47.379Z,462.0000
2023-05-19T08:40:49.605Z,460.0000
2023-05-19T08:41:51.818Z,464.0000
2023-05-19T08:42:54.004Z,465.0000
2023-05-19T08:43:56.359Z,465.0000
2023-05-19T08:44:58.501Z,466.0000
2023-05-19T08:46:00.660Z,465.0000
2023-05-19T08:47:03.083Z,465.0000
2023-05-19T08:48:05.294Z,471.0000
2023-05-19T08:49:07.510Z,467.0000
2023-05-19T08:50:09.630Z,467.0000
2023-05-19T08:51:11.871Z,462.0000
2023-05-19T08:52:14.126Z,462.0000
2023-05-19T08:53:28.965Z,461.0000
2023-05-19T08:54:16.504Z,460.0000
2023-05-19T08:55:18.736Z,456.0000
2023-05-19T08:56:20.961Z,455.0000
2023-05-19T08:57:23.230Z,452.0000
2023-05-19T08:58:26.805Z,450.0000
2023-05-19T08:59:25.610Z,451.0000
2023-05-19T09:00:27.863Z,451.0000
2023-05-19T09:01:27.996Z,449.0000
2023-05-19T09:02:30.178Z,448.0000
2023-05-19T09:03:32.475Z,448.0000
2023-05-19T09:04:34.703Z,447.0000
2023-05-19T09:05:36.980Z,448.0000
2023-05-19T09:06:38.972Z,451.0000
2023-05-19T09:07:41.202Z,448.0000
2023-05-19T09:08:43.435Z,448.0000
2023-05-19T09:09:45.680Z,453.0000
2023-05-19T09:10:47.846Z,464.0000
2023-05-19T09:11:50.046Z,469.0000
2023-05-19T09:12:52.235Z,476.0000
2023-05-19T09:13:54.479Z,482.0000
2023-05-19T09:14:54.600Z,485.0000
2023-05-19T09:15:56.818Z,488.0000
2023-05-19T09:16:59.057Z,488.0000
2023-05-19T09:18:01.309Z,490.0000
2023-05-19T09:19:03.490Z,492.0000
2023-05-19T09:20:05.734Z,493.0000
2023-05-19T09:21:07.893Z,495.0000
2023-05-19T09:22:10.095Z,495.0000
2023-05-19T09:23:12.298Z,498.0000
2023-05-19T09:24:14.511Z,501.0000
2023-05-19T09:25:16.739Z,503.0000
2023-05-19T09:26:18.930Z,508.0000
2023-05-19T09:27:21.093Z,507.0000
2023-05-19T09:28:23.287Z,527.0000
2023-05-19T09:29:25.502Z,522.0000
2023-05-19T09:30:25.587Z,524.0000
2023-05-19T09:31:27.819Z,524.0000
2023-05-19T09:32:30.128Z,528.0000
2023-05-19T09:33:32.107Z,537.0000
2023-05-19T09:34:34.336Z,541.0000
2023-05-19T09:35:36.501Z,543.0000
2023-05-19T09:36:38.684Z,544.0000
2023-05-19T09:37:40.885Z,549.0000
2023-05-19T09:38:43.119Z,552.0000
2023-05-19T09:39:45.311Z,564.0000
2023-05-19T09:40:47.562Z,569.0000
2023-05-19T09:41:49.739Z,579.0000
2023-05-19T09:42:51.949Z,576.0000
2023-05-19T09:43:54.154Z,573.0000
2023-05-19T09:44:56.376Z,574.0000
2023-05-19T09:45:58.679Z,576.0000
2023-05-19T09:46:58.868Z,572.0000
2023-05-19T09:48:01.010Z,563.0000
2023-05-19T09:49:03.233Z,563.0000
2023-05-19T09:50:05.496Z,578.0000
2023-05-19T09:51:07.964Z,577.0000
2023-05-19T09:52:11.154Z,568.0000
2023-05-19T09:53:12.296Z,564.0000
2023-05-19T09:54:14.521Z,564.0000
2023-05-19T09:55:16.770Z,564.0000
2023-05-19T09:56:16.853Z,568.0000
2023-05-19T09:57:19.082Z,562.0000
2023-05-19T09:58:21.242Z,571.0000
2023-05-19T09:59:23.447Z,571.0000
2023-05-19T10:00:25.667Z,571.0000
2023-05-19T10:01:27.924Z,578.0000
2023-05-19T10:02:30.106Z,568.0000
2023-05-19T10:03:32.292Z,575.0000
2023-05-19T10:04:34.499Z,595.0000
2023-05-19T10:05:36.703Z,593.0000
2023-05-19T10:06:38.986Z,593.0000
2023-05-19T10:07:41.234Z,590.0000
2023-05-19T10:08:43.454Z,590.0000
2023-05-19T10:09:43.573Z,580.0000
2023-05-19T10:10:45.796Z,557.0000
2023-05-19T10:11:48.087Z,516.0000
2023-05-19T10:12:50.309Z,512.0000
2023-05-19T10:13:52.577Z,507.0000
2023-05-19T10:14:54.858Z,504.0000
2023-05-19T10:15:59.380Z,504.0000
2023-05-19T10:16:59.452Z,504.0000
2023-05-19T10:18:01.556Z,505.0000
2023-05-19T10:20:37.165Z,505.0000
2023-05-19T10:21:39.321Z,507.0000
2023-05-19T10:22:41.469Z,508.0000
2023-05-19T10:23:41.500Z,506.0000
2023-05-19T10:24:43.698Z,505.0000
2023-05-19T10:25:45.888Z,504.0000
2023-05-19T10:26:48.091Z,505.0000
2023-05-19T10:27:50.283Z,498.0000
2023-05-19T10:28:52.479Z,499.0000
2023-05-19T10:29:54.647Z,501.0000
2023-05-19T10:30:56.838Z,502.0000
2023-05-19T10:31:59.014Z,498.0000
2023-05-19T10:33:01.233Z,498.0000
2023-05-19T10:34:03.423Z,500.0000
2023-05-19T10:35:05.465Z,514.0000
2023-05-19T10:36:07.634Z,515.0000
2023-05-19T10:37:09.824Z,520.0000
2023-05-19T10:38:12.001Z,520.0000
2023-05-19T10:39:14.146Z,520.0000
2023-05-19T10:40:16.299Z,519.0000
2023-05-19T10:41:18.483Z,513.0000
2023-05-19T10:42:20.649Z,514.0000
2023-05-19T10:43:22.839Z,519.0000
2023-05-19T10:44:24.994Z,520.0000
2023-05-19T10:45:27.221Z,518.0000
2023-05-19T10:46:29.494Z,520.0000
2023-05-19T10:47:31.688Z,518.0000
2023-05-19T10:48:31.747Z,520.0000
2023-05-19T10:49:34.002Z,518.0000
2023-05-19T10:50:36.189Z,520.0000
2023-05-19T10:51:38.444Z,516.0000
2023-05-19T10:52:40.589Z,516.0000
2023-05-19T10:53:42.868Z,513.0000
2023-05-19T10:54:45.038Z,514.0000
2023-05-19T10:55:47.278Z,518.0000
2023-05-19T10:56:49.508Z,513.0000
2023-05-19T10:57:51.742Z,515.0000
2023-05-19T10:58:54.014Z,516.0000
2023-05-19T10:59:56.226Z,519.0000
2023-05-19T11:00:58.457Z,518.0000
2023-05-19T11:02:00.758Z,523.0000
2023-05-19T11:03:02.946Z,519.0000
2023-05-19T11:04:05.142Z,525.0000
2023-05-19T11:05:07.362Z,523.0000
2023-05-19T11:06:09.497Z,527.0000
2023-05-19T11:07:11.714Z,537.0000
2023-05-19T11:08:13.980Z,542.0000
2023-05-19T11:09:16.240Z,538.0000
2023-05-19T11:10:18.413Z,536.0000
2023-05-19T11:11:20.605Z,540.0000
2023-05-19T11:12:20.696Z,539.0000
2023-05-19T11:13:23.292Z,543.0000
2023-05-19T11:14:25.197Z,543.0000
2023-05-19T11:15:27.385Z,545.0000
2023-05-19T11:16:29.670Z,547.0000
2023-05-19T11:17:33.118Z,560.0000
2023-05-19T11:18:34.038Z,560.0000
2023-05-19T11:19:36.289Z,543.0000
2023-05-19T11:20:38.763Z,534.0000
2023-05-19T11:21:40.762Z,541.0000
2023-05-19T11:22:43.037Z,547.0000
2023-05-19T11:23:45.238Z,548.0000
2023-05-19T11:24:45.291Z,552.0000
2023-05-19T11:25:47.434Z,557.0000
2023-05-19T11:26:49.647Z,555.0000
2023-05-19T11:27:51.832Z,553.0000
2023-05-19T11:28:53.998Z,556.0000
2023-05-19T11:29:56.180Z,561.0000
2023-05-19T11:30:58.418Z,558.0000
2023-05-19T11:32:00.661Z,555.0000
2023-05-19T11:33:02.840Z,556.0000
2023-05-19T11:34:04.994Z,558.0000
2023-05-19T11:35:07.161Z,559.0000
2023-05-19T11:36:09.303Z,559.0000
2023-05-19T11:37:11.409Z,557.0000
2023-05-19T11:38:13.566Z,557.0000
2023-05-19T11:39:15.736Z,555.0000
2023-05-19T11:40:17.916Z,562.0000
2023-05-19T11:41:20.871Z,560.0000
2023-05-19T11:42:22.273Z,560.0000
2023-05-19T11:43:24.483Z,561.0000
2023-05-19T11:44:26.654Z,563.0000
2023-05-19T11:45:28.894Z,557.0000
2023-05-19T11:46:31.059Z,556.0000
2023-05-19T11:47:42.584Z,556.0000
2023-05-19T11:48:35.341Z,562.0000
2023-05-19T11:49:37.478Z,569.0000
2023-05-19T11:50:39.728Z,565.0000
2023-05-19T11:51:41.764Z,569.0000
2023-05-19T11:52:41.655Z,574.0000
2023-05-19T11:53:43.754Z,577.0000
2023-05-19T11:54:45.852Z,577.0000
2023-05-19T11:55:48.375Z,580.0000
2023-05-19T11:56:50.132Z,581.0000
2023-05-19T11:58:02.779Z,584.0000
2023-05-19T11:58:54.453Z,587.0000
2023-05-19T11:59:56.607Z,585.0000
2023-05-19T12:00:58.872Z,585.0000
2023-05-19T12:02:00.929Z,587.0000
2023-05-19T12:03:03.195Z,593.0000
2023-05-19T12:04:05.359Z,597.0000
2023-05-19T12:05:07.377Z,579.0000
2023-05-19T12:06:07.424Z,556.0000
2023-05-19T12:07:09.496Z,570.0000
2023-05-19T12:08:11.652Z,570.0000
2023-05-19T12:09:11.569Z,571.0000
2023-05-19T12:10:13.644Z,579.0000
2023-05-19T12:11:16.997Z,579.0000
2023-05-19T12:12:17.808Z,578.0000
2023-05-19T12:13:19.926Z,575.0000
2023-05-19T12:14:22.081Z,574.0000